ATV17A HLLM-LROP
Flight info
| Callsign | ATV17A |
|---|---|
| Flight time | N/A |
| Altitude | 39000 |
| Route | LUMED2D LUMED DCT LACAN DCT SUBOK/N0466F400 DCT ADMAS DCT DINOB/N0460F390 DCT DIMIS DCT BEKVA DCT VELBA T343 BLO/N0468F400 Q24 SOMOV |
| Aircraft | B77L/H-SDE1E2E3FGHIJ2J3J4J5M1RWXY/LB1D1 |
Departure
| Time | 2026-04-11 18:08 |
|---|---|
| Airport | Mitiga International Airport (HLLM) |
Arrival
| Time | N/A |
|---|---|
| Airport | Bucharest Henri Coandă International Airport (LROP) |
| Time | Latitude | Longitude | Altitude | Speed | Heading |
|---|---|---|---|---|---|
| 2026-04-11 18:06 | 32.89006 | 13.30558 | 23 ft | 0 kts | 318° |
| 2026-04-11 18:07 | 32.89008 | 13.30556 | 23 ft | 1 kts | 318° |
| 2026-04-11 18:07 | 32.89024 | 13.30563 | 27 ft | 8 kts | 49° |
| 2026-04-11 18:07 | 32.88944 | 13.30566 | 26 ft | 19 kts | 207° |
| 2026-04-11 18:07 | 32.88834 | 13.30470 | 29 ft | 20 kts | 224° |
| 2026-04-11 18:08 | 32.88809 | 13.30361 | 30 ft | 14 kts | 283° |
| 2026-04-11 18:08 | 32.88847 | 13.30196 | 28 ft | 53 kts | 286° |
| 2026-04-11 18:08 | 32.89101 | 13.29223 | 57 ft | 186 kts | 291° |
| 2026-04-11 18:08 | 32.89618 | 13.27601 | 1101 ft | 218 kts | 291° |
| 2026-04-11 18:09 | 32.90277 | 13.26005 | 2602 ft | 227 kts | 305° |
| 2026-04-11 18:09 | 32.91654 | 13.24857 | 3209 ft | 266 kts | 342° |
| 2026-04-11 18:09 | 32.93549 | 13.24887 | 4162 ft | 281 kts | 20° |
| 2026-04-11 18:09 | 32.95220 | 13.26093 | 5390 ft | 283 kts | 41° |
| 2026-04-11 18:10 | 32.96737 | 13.27640 | 6578 ft | 290 kts | 43° |
| 2026-04-11 18:10 | 32.98217 | 13.29218 | 7917 ft | 290 kts | 43° |
| 2026-04-11 18:10 | 32.99715 | 13.30822 | 9302 ft | 289 kts | 42° |
| 2026-04-11 18:10 | 33.01218 | 13.32422 | 10488 ft | 295 kts | 40° |
| 2026-04-11 18:11 | 33.02787 | 13.34075 | 11415 ft | 307 kts | 40° |
| 2026-04-11 18:11 | 33.04420 | 13.35780 | 12444 ft | 316 kts | 39° |
| 2026-04-11 18:11 | 33.06103 | 13.37525 | 13518 ft | 323 kts | 38° |
| 2026-04-11 18:11 | 33.07817 | 13.39295 | 14609 ft | 327 kts | 38° |
| 2026-04-11 18:12 | 33.09542 | 13.41071 | 15740 ft | 329 kts | 37° |
| 2026-04-11 18:12 | 33.11283 | 13.42858 | 16834 ft | 332 kts | 36° |
| 2026-04-11 18:12 | 33.13046 | 13.44666 | 17895 ft | 337 kts | 36° |
| 2026-04-11 18:12 | 33.14837 | 13.46501 | 18826 ft | 343 kts | 35° |
| 2026-04-11 18:13 | 33.16680 | 13.48385 | 19607 ft | 353 kts | 35° |
| 2026-04-11 18:13 | 33.18544 | 13.50290 | 20381 ft | 362 kts | 36° |
| 2026-04-11 18:13 | 33.20482 | 13.52273 | 21169 ft | 371 kts | 36° |
| 2026-04-11 18:13 | 33.22456 | 13.54300 | 22045 ft | 377 kts | 36° |
| 2026-04-11 18:14 | 33.24466 | 13.56365 | 22921 ft | 384 kts | 36° |
| 2026-04-11 18:14 | 33.26508 | 13.58464 | 23749 ft | 390 kts | 36° |
| 2026-04-11 18:14 | 33.28580 | 13.60595 | 24519 ft | 395 kts | 36° |
| 2026-04-11 18:14 | 33.30670 | 13.62747 | 25355 ft | 398 kts | 36° |
| 2026-04-11 18:15 | 33.32771 | 13.64912 | 26186 ft | 401 kts | 36° |
| 2026-04-11 18:15 | 33.34894 | 13.67099 | 26982 ft | 405 kts | 36° |
| 2026-04-11 18:15 | 33.37038 | 13.69308 | 27768 ft | 409 kts | 37° |
| 2026-04-11 18:15 | 33.39213 | 13.71551 | 28540 ft | 414 kts | 37° |
| 2026-04-11 18:16 | 33.41407 | 13.73815 | 29305 ft | 418 kts | 37° |
| 2026-04-11 18:16 | 33.43621 | 13.76101 | 30084 ft | 422 kts | 37° |
| 2026-04-11 18:16 | 33.45861 | 13.78416 | 30701 ft | 428 kts | 36° |
| 2026-04-11 18:16 | 33.48095 | 13.80726 | 31272 ft | 432 kts | 36° |
| 2026-04-11 18:17 | 33.50377 | 13.83088 | 31920 ft | 435 kts | 35° |
| 2026-04-11 18:17 | 33.52673 | 13.85466 | 32572 ft | 437 kts | 35° |
| 2026-04-11 18:17 | 33.54981 | 13.87859 | 33157 ft | 441 kts | 35° |
| 2026-04-11 18:17 | 33.57314 | 13.90278 | 33689 ft | 445 kts | 34° |
| 2026-04-11 18:18 | 33.59663 | 13.92714 | 34206 ft | 448 kts | 34° |
| 2026-04-11 18:18 | 33.62028 | 13.95171 | 34655 ft | 451 kts | 34° |
| 2026-04-11 18:18 | 33.64412 | 13.97648 | 35099 ft | 455 kts | 34° |
| 2026-04-11 18:18 | 33.66811 | 14.00143 | 35509 ft | 458 kts | 34° |
| 2026-04-11 18:19 | 33.69230 | 14.02661 | 35925 ft | 462 kts | 34° |
| 2026-04-11 18:19 | 33.71669 | 14.05202 | 36298 ft | 465 kts | 34° |
| 2026-04-11 18:19 | 33.74095 | 14.07732 | 36685 ft | 468 kts | 34° |
| 2026-04-11 18:19 | 33.76562 | 14.10307 | 37064 ft | 471 kts | 34° |
| 2026-04-11 18:20 | 33.79041 | 14.12897 | 37432 ft | 474 kts | 34° |
| 2026-04-11 18:20 | 33.81533 | 14.15502 | 37770 ft | 477 kts | 34° |
| 2026-04-11 18:20 | 33.84043 | 14.18128 | 38088 ft | 479 kts | 34° |
| 2026-04-11 18:20 | 33.86562 | 14.20764 | 38384 ft | 482 kts | 33° |
| 2026-04-11 18:21 | 33.89098 | 14.23422 | 38728 ft | 483 kts | 34° |
| 2026-04-11 18:21 | 33.91637 | 14.26085 | 38902 ft | 487 kts | 34° |
| 2026-04-11 18:21 | 33.96794 | 14.31498 | 38952 ft | 491 kts | 34° |
| 2026-04-11 18:22 | 34.01893 | 14.36872 | 38959 ft | 484 kts | 34° |
| 2026-04-11 18:22 | 34.06951 | 14.42203 | 38980 ft | 483 kts | 34° |
| 2026-04-11 18:23 | 34.11975 | 14.47500 | 38979 ft | 482 kts | 34° |
| 2026-04-11 18:23 | 34.17045 | 14.52854 | 38982 ft | 484 kts | 35° |
| 2026-04-11 18:24 | 34.22128 | 14.58236 | 38986 ft | 486 kts | 35° |
| 2026-04-11 18:24 | 34.27220 | 14.63638 | 38987 ft | 488 kts | 35° |
| 2026-04-11 18:25 | 34.32291 | 14.69026 | 38988 ft | 489 kts | 36° |
| 2026-04-11 18:26 | 34.39418 | 14.78015 | 38997 ft | 496 kts | 43° |
| 2026-04-11 18:26 | 34.44040 | 14.84229 | 38993 ft | 496 kts | 43° |
| 2026-04-11 18:27 | 34.48676 | 14.90421 | 38994 ft | 496 kts | 42° |
| 2026-04-11 18:27 | 34.53328 | 14.96600 | 38997 ft | 496 kts | 43° |
| 2026-04-11 18:28 | 34.57920 | 15.02697 | 39006 ft | 495 kts | 43° |
| 2026-04-11 18:28 | 34.62567 | 15.08880 | 38998 ft | 495 kts | 43° |
| 2026-04-11 18:29 | 34.67211 | 15.15077 | 39000 ft | 496 kts | 43° |
| 2026-04-11 18:29 | 34.71848 | 15.21274 | 39012 ft | 496 kts | 43° |
| 2026-04-11 18:30 | 34.75699 | 15.26428 | 39012 ft | 496 kts | 43° |
| 2026-04-11 18:30 | 34.81093 | 15.33661 | 39014 ft | 496 kts | 44° |
| 2026-04-11 18:31 | 34.85734 | 15.39896 | 39013 ft | 496 kts | 44° |
| 2026-04-11 18:31 | 34.90371 | 15.46138 | 39016 ft | 497 kts | 44° |
| 2026-04-11 18:32 | 34.95004 | 15.52387 | 39019 ft | 497 kts | 44° |
| 2026-04-11 18:32 | 34.98851 | 15.57584 | 39019 ft | 497 kts | 44° |
| 2026-04-11 18:33 | 35.04230 | 15.64863 | 39023 ft | 497 kts | 44° |
| 2026-04-11 18:33 | 35.08104 | 15.70115 | 39025 ft | 497 kts | 44° |
| 2026-04-11 18:34 | 35.13046 | 15.75922 | 39027 ft | 490 kts | 34° |
| 2026-04-11 18:34 | 35.18588 | 15.80564 | 39033 ft | 485 kts | 27° |
| 2026-04-11 18:35 | 35.24292 | 15.84961 | 39034 ft | 485 kts | 27° |
| 2026-04-11 18:35 | 35.29998 | 15.89390 | 39027 ft | 485 kts | 28° |
| 2026-04-11 18:36 | 35.35676 | 15.93853 | 39032 ft | 485 kts | 28° |
| 2026-04-11 18:36 | 35.41352 | 15.98340 | 39033 ft | 485 kts | 28° |
| 2026-04-11 18:37 | 35.46926 | 16.02755 | 39037 ft | 484 kts | 28° |
| 2026-04-11 18:37 | 35.52580 | 16.07239 | 39029 ft | 483 kts | 28° |
| 2026-04-11 18:38 | 35.58222 | 16.11720 | 39031 ft | 482 kts | 28° |
| 2026-04-11 18:38 | 35.63852 | 16.16198 | 39032 ft | 481 kts | 28° |
| 2026-04-11 18:39 | 35.69438 | 16.20648 | 39036 ft | 481 kts | 28° |
| 2026-04-11 18:39 | 35.75084 | 16.25154 | 39032 ft | 480 kts | 28° |
| 2026-04-11 18:40 | 35.80690 | 16.29636 | 39036 ft | 480 kts | 28° |
| 2026-04-11 18:40 | 35.86262 | 16.34099 | 39036 ft | 481 kts | 28° |
| 2026-04-11 18:41 | 35.91867 | 16.38596 | 39041 ft | 480 kts | 28° |
| 2026-04-11 18:41 | 35.97467 | 16.43097 | 39038 ft | 480 kts | 28° |
| 2026-04-11 18:42 | 36.03056 | 16.47596 | 39038 ft | 479 kts | 28° |
| 2026-04-11 18:42 | 36.08642 | 16.52100 | 39047 ft | 479 kts | 28° |
| 2026-04-11 18:43 | 36.14219 | 16.56606 | 39039 ft | 479 kts | 28° |
| 2026-04-11 18:43 | 36.19797 | 16.61120 | 39037 ft | 478 kts | 28° |
| 2026-04-11 18:44 | 36.25332 | 16.65606 | 39041 ft | 478 kts | 28° |
| 2026-04-11 18:44 | 36.30897 | 16.70125 | 39054 ft | 478 kts | 29° |
| 2026-04-11 18:45 | 36.36467 | 16.74656 | 39045 ft | 478 kts | 29° |
| 2026-04-11 18:45 | 36.42027 | 16.79187 | 39040 ft | 478 kts | 29° |
| 2026-04-11 18:46 | 36.47590 | 16.83728 | 39038 ft | 478 kts | 29° |
| 2026-04-11 18:46 | 36.53068 | 16.88429 | 39053 ft | 479 kts | 32° |
| 2026-04-11 18:47 | 36.58411 | 16.93406 | 39048 ft | 480 kts | 33° |
| 2026-04-11 18:47 | 36.63741 | 16.98422 | 39049 ft | 480 kts | 33° |
| 2026-04-11 18:48 | 36.68983 | 17.03328 | 39044 ft | 480 kts | 33° |
| 2026-04-11 18:48 | 36.74337 | 17.08323 | 39046 ft | 481 kts | 33° |
| 2026-04-11 18:49 | 36.79688 | 17.13320 | 39044 ft | 480 kts | 33° |
| 2026-04-11 18:49 | 36.85038 | 17.18325 | 39045 ft | 480 kts | 33° |
| 2026-04-11 18:50 | 36.90386 | 17.23339 | 39048 ft | 480 kts | 33° |
| 2026-04-11 18:50 | 36.95722 | 17.28350 | 39051 ft | 480 kts | 33° |
| 2026-04-11 18:51 | 37.01026 | 17.33341 | 39048 ft | 480 kts | 33° |
| 2026-04-11 18:51 | 37.06360 | 17.38370 | 39045 ft | 480 kts | 33° |
| 2026-04-11 18:52 | 37.11687 | 17.43400 | 39047 ft | 479 kts | 33° |
| 2026-04-11 18:52 | 37.17004 | 17.48431 | 39044 ft | 478 kts | 33° |
| 2026-04-11 18:53 | 37.22303 | 17.53453 | 39044 ft | 477 kts | 33° |
| 2026-04-11 18:53 | 37.27560 | 17.58445 | 39044 ft | 476 kts | 33° |
| 2026-04-11 18:54 | 37.32847 | 17.63474 | 39057 ft | 476 kts | 33° |
| 2026-04-11 18:54 | 37.38126 | 17.68504 | 39054 ft | 476 kts | 33° |